sensor_id;sensor_type;location;lat;lon;timestamp;pressure;altitude;pressure_sealevel;temperature;humidity
77749;BME280;66938;52.084;5.228;2023-04-03T00:01:34;103211.99999999999;;;3.89;71.39
77749;BME280;66938;52.084;5.228;2023-04-03T00:03:11;103217.0;;;3.93;70.03
77749;BME280;66938;52.084;5.228;2023-04-03T00:04:47;103215.00000000001;;;3.93;69.75
77749;BME280;66938;52.084;5.228;2023-04-03T00:08:02;103219.0;;;3.95;69.08
77749;BME280;66938;52.084;5.228;2023-04-03T00:09:39;103219.0;;;3.98;69.5
77749;BME280;66938;52.084;5.228;2023-04-03T00:11:16;103221.0;;;3.94;69.47
77749;BME280;66938;52.084;5.228;2023-04-03T00:12:52;103219.0;;;3.95;69.22
77749;BME280;66938;52.084;5.228;2023-04-03T00:16:06;103221.0;;;3.96;68.24
77749;BME280;66938;52.084;5.228;2023-04-03T00:17:43;103220.0;;;3.98;67.52
77749;BME280;66938;52.084;5.228;2023-04-03T00:19:20;103224.0;;;3.99;68.28
77749;BME280;66938;52.084;5.228;2023-04-03T00:22:34;103228.0;;;4.0;68.05
77749;BME280;66938;52.084;5.228;2023-04-03T00:24:10;103229.0;;;4.01;68.36
77749;BME280;66938;52.084;5.228;2023-04-03T00:25:46;103233.99999999999;;;4.03;68.03
77749;BME280;66938;52.084;5.228;2023-04-03T00:29:00;103231.0;;;4.03;68.08
77749;BME280;66938;52.084;5.228;2023-04-03T00:30:36;103233.99999999999;;;4.01;68.28
77749;BME280;66938;52.084;5.228;2023-04-03T00:32:12;103233.0;;;3.95;69.33
77749;BME280;66938;52.084;5.228;2023-04-03T00:33:49;103233.0;;;3.99;68.3
77749;BME280;66938;52.084;5.228;2023-04-03T00:37:05;103233.0;;;3.96;67.66
77749;BME280;66938;52.084;5.228;2023-04-03T00:38:41;103238.00000000001;;;3.95;67.97
77749;BME280;66938;52.084;5.228;2023-04-03T00:40:18;103240.00000000001;;;3.97;67.47
77749;BME280;66938;52.084;5.228;2023-04-03T00:43:31;103236.99999999999;;;3.95;67.94
77749;BME280;66938;52.084;5.228;2023-04-03T00:45:28;103236.99999999999;;;3.98;67.1
77749;BME280;66938;52.084;5.228;2023-04-03T00:47:09;103228.0;;;4.03;66.6
77749;BME280;66938;52.084;5.228;2023-04-03T00:48:48;103232.0;;;4.03;66.27
77749;BME280;66938;52.084;5.228;2023-04-03T00:52:05;103238.00000000001;;;4.08;65.8
77749;BME280;66938;52.084;5.228;2023-04-03T00:53:47;103238.00000000001;;;4.05;65.37
77749;BME280;66938;52.084;5.228;2023-04-03T00:55:25;103238.00000000001;;;4.07;65.39
77749;BME280;66938;52.084;5.228;2023-04-03T00:57:02;103239.00000000001;;;4.05;65.55
77749;BME280;66938;52.084;5.228;2023-04-03T01:00:25;103242.0;;;4.09;65.59
77749;BME280;66938;52.084;5.228;2023-04-03T01:02:02;103243.0;;;4.04;65.27
77749;BME280;66938;52.084;5.228;2023-04-03T01:03:38;103242.0;;;4.08;65.81
77749;BME280;66938;52.084;5.228;2023-04-03T01:05:15;103243.0;;;4.07;66.24
77749;BME280;66938;52.084;5.228;2023-04-03T01:08:32;103244.0;;;4.05;66.1
77749;BME280;66938;52.084;5.228;2023-04-03T01:10:12;103247.0;;;4.03;66.27
77749;BME280;66938;52.084;5.228;2023-04-03T01:11:50;103245.0;;;3.98;66.22
77749;BME280;66938;52.084;5.228;2023-04-03T01:15:08;103242.0;;;3.97;66.41
77749;BME280;66938;52.084;5.228;2023-04-03T01:16:52;103249.0;;;3.95;66.64
77749;BME280;66938;52.084;5.228;2023-04-03T01:18:29;103249.0;;;3.84;68.02
77749;BME280;66938;52.084;5.228;2023-04-03T01:20:34;103252.0;;;3.87;67.77
77749;BME280;66938;52.084;5.228;2023-04-03T01:24:02;103248.0;;;3.88;66.78
77749;BME280;66938;52.084;5.228;2023-04-03T01:25:46;103246.0;;;3.89;66.56
77749;BME280;66938;52.084;5.228;2023-04-03T01:27:24;103248.0;;;3.9;66.55
77749;BME280;66938;52.084;5.228;2023-04-03T01:29:02;103250.0;;;3.87;66.52
77749;BME280;66938;52.084;5.228;2023-04-03T01:30:43;103253.0;;;3.86;66.75
77749;BME280;66938;52.084;5.228;2023-04-03T01:32:23;103249.0;;;3.87;66.72
77749;BME280;66938;52.084;5.228;2023-04-03T01:35:37;103242.0;;;3.86;66.8
77749;BME280;66938;52.084;5.228;2023-04-03T01:37:14;103242.0;;;3.87;66.36
77749;BME280;66938;52.084;5.228;2023-04-03T01:38:51;103239.00000000001;;;3.79;66.72
77749;BME280;66938;52.084;5.228;2023-04-03T01:42:05;103239.00000000001;;;3.79;66.73
77749;BME280;66938;52.084;5.228;2023-04-03T01:43:42;103241.00000000001;;;3.78;66.85
77749;BME280;66938;52.084;5.228;2023-04-03T01:45:19;103242.0;;;3.78;67.52
77749;BME280;66938;52.084;5.228;2023-04-03T01:48:32;103242.0;;;3.74;67.47
77749;BME280;66938;52.084;5.228;2023-04-03T01:50:09;103240.00000000001;;;3.77;67.84
77749;BME280;66938;52.084;5.228;2023-04-03T01:51:46;103241.00000000001;;;3.76;67.52
77749;BME280;66938;52.084;5.228;2023-04-03T01:53:22;103242.0;;;3.71;67.97
77749;BME280;66938;52.084;5.228;2023-04-03T01:56:34;103242.0;;;3.68;68.17
77749;BME280;66938;52.084;5.228;2023-04-03T01:58:10;103245.0;;;3.72;67.86
77749;BME280;66938;52.084;5.228;2023-04-03T01:59:47;103245.0;;;3.66;67.94
77749;BME280;66938;52.084;5.228;2023-04-03T02:03:01;103250.0;;;3.61;68.27
77749;BME280;66938;52.084;5.228;2023-04-03T02:04:38;103247.0;;;3.56;68.41
77749;BME280;66938;52.084;5.228;2023-04-03T02:06:16;103252.0;;;3.59;67.8
77749;BME280;66938;52.084;5.228;2023-04-03T02:07:52;103253.0;;;3.61;67.91
77749;BME280;66938;52.084;5.228;2023-04-03T02:11:04;103251.0;;;3.56;67.94
77749;BME280;66938;52.084;5.228;2023-04-03T02:12:40;103255.0;;;3.54;68.02
77749;BME280;66938;52.084;5.228;2023-04-03T02:14:16;103259.99999999999;;;3.51;68.27
77749;BME280;66938;52.084;5.228;2023-04-03T02:17:28;103263.00000000001;;;3.48;68.83
77749;BME280;66938;52.084;5.228;2023-04-03T02:19:05;103266.00000000001;;;3.41;68.98
77749;BME280;66938;52.084;5.228;2023-04-03T02:20:41;103266.00000000001;;;3.37;69.5
77749;BME280;66938;52.084;5.228;2023-04-03T02:23:53;103265.00000000001;;;3.36;69.44
77749;BME280;66938;52.084;5.228;2023-04-03T02:25:30;103258.0;;;3.35;69.14
77749;BME280;66938;52.084;5.228;2023-04-03T02:27:07;103257.0;;;3.38;69.08
77749;BME280;66938;52.084;5.228;2023-04-03T02:30:20;103259.99999999999;;;3.36;69.22
77749;BME280;66938;52.084;5.228;2023-04-03T02:31:56;103266.00000000001;;;3.36;69.16
77749;BME280;66938;52.084;5.228;2023-04-03T02:33:33;103263.00000000001;;;3.35;69.05
77749;BME280;66938;52.084;5.228;2023-04-03T02:35:10;103258.0;;;3.41;69.27
77749;BME280;66938;52.084;5.228;2023-04-03T02:38:23;103264.00000000001;;;3.44;69.03
77749;BME280;66938;52.084;5.228;2023-04-03T02:40:00;103259.99999999999;;;3.36;69.61
77749;BME280;66938;52.084;5.228;2023-04-03T02:41:37;103259.99999999999;;;3.4;68.91
77749;BME280;66938;52.084;5.228;2023-04-03T02:44:49;103264.00000000001;;;3.42;69.3
77749;BME280;66938;52.084;5.228;2023-04-03T02:46:25;103266.00000000001;;;3.4;68.83
77749;BME280;66938;52.084;5.228;2023-04-03T02:48:01;103272.0;;;3.46;68.8
77749;BME280;66938;52.084;5.228;2023-04-03T02:51:14;103277.0;;;3.43;68.94
77749;BME280;66938;52.084;5.228;2023-04-03T02:52:50;103276.0;;;3.28;69.45
77749;BME280;66938;52.084;5.228;2023-04-03T02:54:26;103278.0;;;3.3;69.31
77749;BME280;66938;52.084;5.228;2023-04-03T02:56:02;103281.0;;;3.24;70.05
77749;BME280;66938;52.084;5.228;2023-04-03T02:59:15;103280.0;;;3.25;69.86
77749;BME280;66938;52.084;5.228;2023-04-03T03:00:52;103281.0;;;3.3;69.7
77749;BME280;66938;52.084;5.228;2023-04-03T03:02:28;103282.0;;;3.24;70.22
77749;BME280;66938;52.084;5.228;2023-04-03T03:05:40;103283.0;;;3.28;69.77
77749;BME280;66938;52.084;5.228;2023-04-03T03:07:17;103282.0;;;3.25;69.61
77749;BME280;66938;52.084;5.228;2023-04-03T03:08:53;103288.00000000001;;;3.29;69.83
77749;BME280;66938;52.084;5.228;2023-04-03T03:12:05;103288.00000000001;;;3.29;69.74
77749;BME280;66938;52.084;5.228;2023-04-03T03:13:41;103290.00000000001;;;3.3;69.7
77749;BME280;66938;52.084;5.228;2023-04-03T03:15:18;103290.00000000001;;;3.3;69.67
77749;BME280;66938;52.084;5.228;2023-04-03T03:16:54;103292.0;;;3.26;70.22
77749;BME280;66938;52.084;5.228;2023-04-03T03:20:07;103292.0;;;3.24;70.3
77749;BME280;66938;52.084;5.228;2023-04-03T03:21:43;103293.0;;;3.19;70.33
77749;BME280;66938;52.084;5.228;2023-04-03T03:23:21;103293.0;;;3.2;70.33
77749;BME280;66938;52.084;5.228;2023-04-03T03:26:36;103294.0;;;3.13;71.0
77749;BME280;66938;52.084;5.228;2023-04-03T03:28:13;103295.0;;;3.09;71.39
77749;BME280;66938;52.084;5.228;2023-04-03T03:29:50;103299.0;;;3.0;71.8
77749;BME280;66938;52.084;5.228;2023-04-03T03:33:02;103299.0;;;3.0;71.94
77749;BME280;66938;52.084;5.228;2023-04-03T03:34:39;103298.0;;;2.97;72.05
77749;BME280;66938;52.084;5.228;2023-04-03T03:36:15;103298.0;;;2.97;72.11
77749;BME280;66938;52.084;5.228;2023-04-03T03:37:52;103300.0;;;2.96;72.19
77749;BME280;66938;52.084;5.228;2023-04-03T03:41:04;103308.0;;;2.98;72.33
77749;BME280;66938;52.084;5.228;2023-04-03T03:42:40;103311.99999999999;;;2.93;72.31
77749;BME280;66938;52.084;5.228;2023-04-03T03:44:16;103308.99999999999;;;2.92;72.55
77749;BME280;66938;52.084;5.228;2023-04-03T03:47:30;103307.0;;;2.87;72.61
77749;BME280;66938;52.084;5.228;2023-04-03T03:49:06;103307.0;;;2.83;72.38
77749;BME280;66938;52.084;5.228;2023-04-03T03:50:42;103305.0;;;2.76;72.66
77749;BME280;66938;52.084;5.228;2023-04-03T03:53:54;103304.0;;;2.72;72.61
77749;BME280;66938;52.084;5.228;2023-04-03T03:55:31;103308.0;;;2.73;72.58
77749;BME280;66938;52.084;5.228;2023-04-03T03:57:07;103311.99999999999;;;2.73;72.86
77749;BME280;66938;52.084;5.228;2023-04-03T03:58:44;103309.99999999999;;;2.72;72.98
77749;BME280;66938;52.084;5.228;2023-04-03T04:01:56;103309.99999999999;;;2.71;72.94
77749;BME280;66938;52.084;5.228;2023-04-03T04:03:33;103311.99999999999;;;2.69;73.06
77749;BME280;66938;52.084;5.228;2023-04-03T04:05:09;103316.00000000001;;;2.61;73.42
77749;BME280;66938;52.084;5.228;2023-04-03T04:08:21;103314.00000000001;;;2.61;73.3
77749;BME280;66938;52.084;5.228;2023-04-03T04:09:57;103313.00000000001;;;2.62;73.8
77749;BME280;66938;52.084;5.228;2023-04-03T04:11:34;103314.00000000001;;;2.61;73.75
77749;BME280;66938;52.084;5.228;2023-04-03T04:14:46;103311.99999999999;;;2.54;74.09
77749;BME280;66938;52.084;5.228;2023-04-03T04:16:22;103306.0;;;2.5;73.81
77749;BME280;66938;52.084;5.228;2023-04-03T04:17:59;103317.0;;;2.54;73.62
77749;BME280;66938;52.084;5.228;2023-04-03T04:21:11;103323.0;;;2.5;74.11
77749;BME280;66938;52.084;5.228;2023-04-03T04:22:47;103325.0;;;2.5;74.11
77749;BME280;66938;52.084;5.228;2023-04-03T04:24:23;103319.0;;;2.38;74.83
77749;BME280;66938;52.084;5.228;2023-04-03T04:26:00;103321.0;;;2.33;75.16
77749;BME280;66938;52.084;5.228;2023-04-03T04:29:13;103323.0;;;2.37;74.99
77749;BME280;66938;52.084;5.228;2023-04-03T04:30:49;103320.0;;;2.37;75.33
77749;BME280;66938;52.084;5.228;2023-04-03T04:32:26;103322.0;;;2.31;75.34
77749;BME280;66938;52.084;5.228;2023-04-03T04:35:38;103324.0;;;2.23;75.94
77749;BME280;66938;52.084;5.228;2023-04-03T04:37:14;103328.0;;;2.23;75.69
77749;BME280;66938;52.084;5.228;2023-04-03T04:38:50;103324.0;;;2.21;75.66
77749;BME280;66938;52.084;5.228;2023-04-03T04:42:04;103323.0;;;2.21;76.36
77749;BME280;66938;52.084;5.228;2023-04-03T04:43:40;103323.0;;;2.23;75.94
77749;BME280;66938;52.084;5.228;2023-04-03T04:45:16;103326.0;;;2.21;75.94
77749;BME280;66938;52.084;5.228;2023-04-03T04:46:52;103329.0;;;2.19;75.94
77749;BME280;66938;52.084;5.228;2023-04-03T04:50:05;103333.99999999999;;;2.14;76.08
77749;BME280;66938;52.084;5.228;2023-04-03T04:51:42;103336.99999999999;;;2.09;75.98
77749;BME280;66938;52.084;5.228;2023-04-03T04:53:18;103344.0;;;2.15;75.66
77749;BME280;66938;52.084;5.228;2023-04-03T04:56:31;103342.0;;;2.15;75.55
77749;BME280;66938;52.084;5.228;2023-04-03T04:58:07;103339.00000000001;;;2.14;75.67
77749;BME280;66938;52.084;5.228;2023-04-03T04:59:43;103341.00000000001;;;2.1;76.06
77749;BME280;66938;52.084;5.228;2023-04-03T05:02:55;103333.99999999999;;;2.07;76.14
77749;BME280;66938;52.084;5.228;2023-04-03T05:04:31;103331.0;;;2.06;76.02
77749;BME280;66938;52.084;5.228;2023-04-03T05:06:08;103334.99999999999;;;2.05;75.86
77749;BME280;66938;52.084;5.228;2023-04-03T05:07:44;103338.00000000001;;;2.09;75.73
77749;BME280;66938;52.084;5.228;2023-04-03T05:10:57;103336.99999999999;;;2.13;75.55
77749;BME280;66938;52.084;5.228;2023-04-03T05:12:32;103340.00000000001;;;2.11;75.41
77749;BME280;66938;52.084;5.228;2023-04-03T05:14:09;103342.0;;;2.17;75.41
77749;BME280;66938;52.084;5.228;2023-04-03T05:17:22;103341.00000000001;;;2.21;75.27
77749;BME280;66938;52.084;5.228;2023-04-03T05:18:58;103341.00000000001;;;2.23;75.17
77749;BME280;66938;52.084;5.228;2023-04-03T05:20:35;103340.00000000001;;;2.29;75.11
77749;BME280;66938;52.084;5.228;2023-04-03T05:23:47;103347.0;;;2.31;75.06
77749;BME280;66938;52.084;5.228;2023-04-03T05:25:23;103351.0;;;2.25;75.61
77749;BME280;66938;52.084;5.228;2023-04-03T05:26:59;103365.00000000001;;;2.25;75.58
77749;BME280;66938;52.084;5.228;2023-04-03T05:30:12;103364.00000000001;;;2.21;75.49
77749;BME280;66938;52.084;5.228;2023-04-03T05:31:49;103369.0;;;2.15;76.02
77749;BME280;66938;52.084;5.228;2023-04-03T05:33:26;103372.0;;;2.15;76.11
77749;BME280;66938;52.084;5.228;2023-04-03T05:35:03;103370.0;;;2.14;76.22
77749;BME280;66938;52.084;5.228;2023-04-03T05:38:16;103375.0;;;2.09;76.77
77749;BME280;66938;52.084;5.228;2023-04-03T05:39:52;103370.0;;;2.08;76.73
77749;BME280;66938;52.084;5.228;2023-04-03T05:41:28;103373.0;;;2.05;76.73
77749;BME280;66938;52.084;5.228;2023-04-03T05:44:41;103371.0;;;2.06;77.05
77749;BME280;66938;52.084;5.228;2023-04-03T05:46:19;103375.0;;;2.07;77.17
77749;BME280;66938;52.084;5.228;2023-04-03T05:47:55;103375.0;;;2.06;77.37
77749;BME280;66938;52.084;5.228;2023-04-03T05:51:14;103376.0;;;2.11;77.25
77749;BME280;66938;52.084;5.228;2023-04-03T05:52:52;103373.0;;;2.1;77.5
77749;BME280;66938;52.084;5.228;2023-04-03T05:54:31;103376.0;;;2.14;77.31
77749;BME280;66938;52.084;5.228;2023-04-03T05:56:07;103382.0;;;2.09;77.19
77749;BME280;66938;52.084;5.228;2023-04-03T05:59:20;103384.99999999999;;;2.11;77.31
77749;BME280;66938;52.084;5.228;2023-04-03T06:00:57;103384.99999999999;;;2.12;77.27
77749;BME280;66938;52.084;5.228;2023-04-03T06:02:33;103393.0;;;2.13;78.19
77749;BME280;66938;52.084;5.228;2023-04-03T06:05:46;103395.0;;;2.17;77.63
77749;BME280;66938;52.084;5.228;2023-04-03T06:07:24;103386.99999999999;;;2.23;77.48
77749;BME280;66938;52.084;5.228;2023-04-03T06:09:00;103388.00000000001;;;2.31;76.95
77749;BME280;66938;52.084;5.228;2023-04-03T06:10:36;103388.00000000001;;;2.33;76.02
77749;BME280;66938;52.084;5.228;2023-04-03T06:13:49;103389.00000000001;;;2.39;75.34
77749;BME280;66938;52.084;5.228;2023-04-03T06:15:26;103389.00000000001;;;2.54;74.98
77749;BME280;66938;52.084;5.228;2023-04-03T06:17:03;103390.00000000001;;;2.61;74.78
77749;BME280;66938;52.084;5.228;2023-04-03T06:25:13;103395.0;;;2.89;73.64
77749;BME280;66938;52.084;5.228;2023-04-03T06:28:26;103395.0;;;2.94;73.0
77749;BME280;66938;52.084;5.228;2023-04-03T06:30:02;103393.0;;;3.03;72.78
77749;BME280;66938;52.084;5.228;2023-04-03T06:31:38;103393.0;;;3.04;72.41
77749;BME280;66938;52.084;5.228;2023-04-03T06:34:50;103393.0;;;3.14;71.8
77749;BME280;66938;52.084;5.228;2023-04-03T06:36:26;103400.0;;;3.2;71.53
77749;BME280;66938;52.084;5.228;2023-04-03T06:38:02;103401.0;;;3.24;71.59
77749;BME280;66938;52.084;5.228;2023-04-03T06:41:15;103403.0;;;3.33;71.05
77749;BME280;66938;52.084;5.228;2023-04-03T06:42:52;103401.0;;;3.39;70.61
77749;BME280;66938;52.084;5.228;2023-04-03T06:44:28;103405.0;;;3.45;70.24
77749;BME280;66938;52.084;5.228;2023-04-03T06:46:04;103409.99999999999;;;3.52;70.05
77749;BME280;66938;52.084;5.228;2023-04-03T06:49:17;103407.0;;;3.59;69.11
77749;BME280;66938;52.084;5.228;2023-04-03T06:50:53;103414.00000000001;;;3.67;69.25
77749;BME280;66938;52.084;5.228;2023-04-03T06:52:29;103413.00000000001;;;3.73;69.05
77749;BME280;66938;52.084;5.228;2023-04-03T06:55:42;103411.99999999999;;;3.8;68.45
77749;BME280;66938;52.084;5.228;2023-04-03T06:57:19;103416.00000000001;;;3.83;67.33
77749;BME280;66938;52.084;5.228;2023-04-03T06:58:55;103419.0;;;3.89;67.69
77749;BME280;66938;52.084;5.228;2023-04-03T07:02:10;103423.0;;;3.99;67.72
77749;BME280;66938;52.084;5.228;2023-04-03T07:03:47;103427.0;;;4.1;67.3
77749;BME280;66938;52.084;5.228;2023-04-03T07:05:24;103424.0;;;4.12;66.94
77749;BME280;66938;52.084;5.228;2023-04-03T07:07:01;103431.0;;;4.16;65.8
77749;BME280;66938;52.084;5.228;2023-04-03T07:10:14;103436.99999999999;;;4.25;65.94
77749;BME280;66938;52.084;5.228;2023-04-03T07:11:51;103438.00000000001;;;4.33;65.77
77749;BME280;66938;52.084;5.228;2023-04-03T07:13:27;103439.00000000001;;;4.45;65.8
77749;BME280;66938;52.084;5.228;2023-04-03T07:16:40;103440.00000000001;;;4.49;65.59
77749;BME280;66938;52.084;5.228;2023-04-03T07:18:16;103439.00000000001;;;4.54;64.55
77749;BME280;66938;52.084;5.228;2023-04-03T07:19:53;103438.00000000001;;;4.64;64.36
77749;BME280;66938;52.084;5.228;2023-04-03T07:23:06;103442.0;;;4.74;64.95
77749;BME280;66938;52.084;5.228;2023-04-03T07:24:42;103443.0;;;4.82;65.05
77749;BME280;66938;52.084;5.228;2023-04-03T07:26:18;103446.0;;;4.92;64.47
77749;BME280;66938;52.084;5.228;2023-04-03T07:27:54;103444.0;;;4.97;64.02
77749;BME280;66938;52.084;5.228;2023-04-03T07:31:10;103444.0;;;4.99;63.42
77749;BME280;66938;52.084;5.228;2023-04-03T07:32:47;103447.0;;;5.09;62.57
77749;BME280;66938;52.084;5.228;2023-04-03T07:34:24;103445.0;;;5.25;63.23
77749;BME280;66938;52.084;5.228;2023-04-03T07:37:37;103442.0;;;5.33;63.08
77749;BME280;66938;52.084;5.228;2023-04-03T07:39:13;103442.0;;;5.39;62.17
77749;BME280;66938;52.084;5.228;2023-04-03T07:40:50;103443.0;;;5.47;61.53
77749;BME280;66938;52.084;5.228;2023-04-03T07:44:02;103443.0;;;5.6;62.06
77749;BME280;66938;52.084;5.228;2023-04-03T07:45:40;103442.0;;;5.65;61.81
77749;BME280;66938;52.084;5.228;2023-04-03T07:47:18;103436.99999999999;;;5.69;60.2
77749;BME280;66938;52.084;5.228;2023-04-03T07:48:55;103445.0;;;5.78;59.6
77749;BME280;66938;52.084;5.228;2023-04-03T07:52:07;103441.00000000001;;;5.87;60.02
77749;BME280;66938;52.084;5.228;2023-04-03T07:53:43;103442.0;;;5.87;58.82
77749;BME280;66938;52.084;5.228;2023-04-03T07:55:19;103442.0;;;5.95;58.54
77749;BME280;66938;52.084;5.228;2023-04-03T07:58:31;103442.0;;;6.02;58.59
77749;BME280;66938;52.084;5.228;2023-04-03T08:00:08;103448.0;;;6.1;58.77
77749;BME280;66938;52.084;5.228;2023-04-03T08:01:44;103450.0;;;6.12;56.34
77749;BME280;66938;52.084;5.228;2023-04-03T08:04:57;103447.0;;;6.08;56.39
77749;BME280;66938;52.084;5.228;2023-04-03T08:06:33;103443.0;;;6.14;56.07
77749;BME280;66938;52.084;5.228;2023-04-03T08:08:10;103444.0;;;6.14;56.17
77749;BME280;66938;52.084;5.228;2023-04-03T08:09:47;103454.0;;;6.14;55.38
77749;BME280;66938;52.084;5.228;2023-04-03T08:13:00;103449.0;;;6.19;55.23
77749;BME280;66938;52.084;5.228;2023-04-03T08:14:37;103453.0;;;6.21;54.21
77749;BME280;66938;52.084;5.228;2023-04-03T08:16:16;103453.0;;;6.21;53.28
77749;BME280;66938;52.084;5.228;2023-04-03T08:19:30;103454.0;;;6.22;53.96
77749;BME280;66938;52.084;5.228;2023-04-03T08:21:08;103458.99999999999;;;6.26;53.95
77749;BME280;66938;52.084;5.228;2023-04-03T08:22:44;103467.0;;;6.3;54.56
77749;BME280;66938;52.084;5.228;2023-04-03T08:25:56;103470.0;;;6.31;54.07
77749;BME280;66938;52.084;5.228;2023-04-03T08:27:33;103464.00000000001;;;6.4;55.66
77749;BME280;66938;52.084;5.228;2023-04-03T08:29:09;103470.0;;;6.52;54.14
77749;BME280;66938;52.084;5.228;2023-04-03T08:30:46;103461.99999999999;;;6.61;54.53
77749;BME280;66938;52.084;5.228;2023-04-03T08:33:58;103465.00000000001;;;6.65;53.78
77749;BME280;66938;52.084;5.228;2023-04-03T08:35:38;103467.0;;;6.66;52.15
77749;BME280;66938;52.084;5.228;2023-04-03T08:37:14;103474.0;;;6.77;53.09
77749;BME280;66938;52.084;5.228;2023-04-03T08:40:29;103480.0;;;6.82;50.9
77749;BME280;66938;52.084;5.228;2023-04-03T08:42:11;103478.0;;;6.9;50.0
77749;BME280;66938;52.084;5.228;2023-04-03T08:43:58;103473.0;;;6.92;49.68
77749;BME280;66938;52.084;5.228;2023-04-03T08:45:43;103475.0;;;6.94;48.28
77749;BME280;66938;52.084;5.228;2023-04-03T08:49:10;103475.0;;;6.98;50.12
77749;BME280;66938;52.084;5.228;2023-04-03T08:50:51;103469.0;;;6.99;48.53
77749;BME280;66938;52.084;5.228;2023-04-03T08:52:35;103467.0;;;7.05;47.42
77749;BME280;66938;52.084;5.228;2023-04-03T08:54:20;103469.0;;;7.17;47.42
77749;BME280;66938;52.084;5.228;2023-04-03T08:56:05;103471.0;;;7.17;46.35
77749;BME280;66938;52.084;5.228;2023-04-03T08:59:27;103476.0;;;7.18;44.95
77749;BME280;66938;52.084;5.228;2023-04-03T09:01:16;103477.0;;;7.2;44.14
77749;BME280;66938;52.084;5.228;2023-04-03T09:02:54;103475.0;;;7.17;42.52
77749;BME280;66938;52.084;5.228;2023-04-03T09:04:32;103467.0;;;7.26;43.61
77749;BME280;66938;52.084;5.228;2023-04-03T09:07:58;103470.0;;;7.35;43.38
77749;BME280;66938;52.084;5.228;2023-04-03T09:09:39;103469.0;;;7.49;44.75
77749;BME280;66938;52.084;5.228;2023-04-03T09:11:21;103463.00000000001;;;7.58;42.73
77749;BME280;66938;52.084;5.228;2023-04-03T09:13:04;103464.00000000001;;;7.6;40.22
77749;BME280;66938;52.084;5.228;2023-04-03T09:14:52;103467.0;;;7.67;40.17
77749;BME280;66938;52.084;5.228;2023-04-03T09:18:28;103469.0;;;7.64;40.78
77749;BME280;66938;52.084;5.228;2023-04-03T09:20:16;103469.0;;;7.65;38.25
77749;BME280;66938;52.084;5.228;2023-04-03T09:21:56;103471.0;;;7.81;40.68
77749;BME280;66938;52.084;5.228;2023-04-03T09:23:39;103476.0;;;7.82;37.5
77749;BME280;66938;52.084;5.228;2023-04-03T09:25:20;103468.0;;;7.9;39.19
77749;BME280;66938;52.084;5.228;2023-04-03T09:28:40;103467.0;;;8.0;37.39
77749;BME280;66938;52.084;5.228;2023-04-03T09:30:20;103470.0;;;8.1;38.17
77749;BME280;66938;52.084;5.228;2023-04-03T09:32:00;103465.00000000001;;;8.08;37.53
77749;BME280;66938;52.084;5.228;2023-04-03T09:33:37;103457.0;;;8.22;40.03
77749;BME280;66938;52.084;5.228;2023-04-03T09:36:58;103454.0;;;8.17;36.81
77749;BME280;66938;52.084;5.228;2023-04-03T09:38:35;103452.0;;;8.06;37.25
77749;BME280;66938;52.084;5.228;2023-04-03T09:40:29;103454.0;;;8.05;37.1
77749;BME280;66938;52.084;5.228;2023-04-03T09:42:22;103452.0;;;8.08;35.85
77749;BME280;66938;52.084;5.228;2023-04-03T09:43:59;103444.0;;;7.99;35.68
77749;BME280;66938;52.084;5.228;2023-04-03T09:47:18;103446.0;;;8.16;37.31
77749;BME280;66938;52.084;5.228;2023-04-03T09:49:03;103442.0;;;8.38;39.46
77749;BME280;66938;52.084;5.228;2023-04-03T09:50:54;103446.0;;;8.33;35.76
77749;BME280;66938;52.084;5.228;2023-04-03T09:52:33;103443.0;;;8.41;35.46
77749;BME280;66938;52.084;5.228;2023-04-03T09:56:20;103438.00000000001;;;8.57;36.15
77749;BME280;66938;52.084;5.228;2023-04-03T09:58:00;103438.00000000001;;;8.6;36.28
77749;BME280;66938;52.084;5.228;2023-04-03T09:59:43;103431.0;;;8.68;36.81
77749;BME280;66938;52.084;5.228;2023-04-03T10:01:23;103438.00000000001;;;8.67;33.05
77749;BME280;66938;52.084;5.228;2023-04-03T10:03:04;103434.99999999999;;;8.51;32.0
77749;BME280;66938;52.084;5.228;2023-04-03T10:06:21;103432.0;;;8.55;32.21
77749;BME280;66938;52.084;5.228;2023-04-03T10:08:09;103423.0;;;8.73;33.93
77749;BME280;66938;52.084;5.228;2023-04-03T10:10:01;103417.0;;;8.67;32.42
77749;BME280;66938;52.084;5.228;2023-04-03T10:11:57;103414.00000000001;;;8.76;32.46
77749;BME280;66938;52.084;5.228;2023-04-03T10:13:34;103414.00000000001;;;8.81;33.82
77749;BME280;66938;52.084;5.228;2023-04-03T10:16:55;103408.0;;;8.73;31.83
77749;BME280;66938;52.084;5.228;2023-04-03T10:18:41;103407.0;;;8.82;32.99
77749;BME280;66938;52.084;5.228;2023-04-03T10:20:31;103399.0;;;8.94;33.78
77749;BME280;66938;52.084;5.228;2023-04-03T10:22:16;103402.0;;;8.92;34.35
77749;BME280;66938;52.084;5.228;2023-04-03T10:24:04;103398.0;;;9.06;31.58
77749;BME280;66938;52.084;5.228;2023-04-03T10:25:52;103394.0;;;9.08;31.48
77749;BME280;66938;52.084;5.228;2023-04-03T10:29:36;103391.00000000001;;;9.08;31.23
77749;BME280;66938;52.084;5.228;2023-04-03T10:31:17;103380.0;;;9.06;32.25
77749;BME280;66938;52.084;5.228;2023-04-03T10:33:08;103377.0;;;9.05;30.32
77749;BME280;66938;52.084;5.228;2023-04-03T10:34:57;103376.0;;;9.0;28.68
77749;BME280;66938;52.084;5.228;2023-04-03T10:36:43;103379.0;;;9.1;30.63
77749;BME280;66938;52.084;5.228;2023-04-03T10:38:33;103374.0;;;9.14;28.74
77749;BME280;66938;52.084;5.228;2023-04-03T10:42:08;103367.0;;;9.23;28.64
77749;BME280;66938;52.084;5.228;2023-04-03T10:43:59;103368.0;;;9.35;27.91
77749;BME280;66938;52.084;5.228;2023-04-03T10:45:54;103368.0;;;9.51;29.02
77749;BME280;66938;52.084;5.228;2023-04-03T10:47:40;103363.00000000001;;;9.71;28.23
77749;BME280;66938;52.084;5.228;2023-04-03T10:49:29;103365.00000000001;;;9.88;28.74
77749;BME280;66938;52.084;5.228;2023-04-03T10:51:19;103357.0;;;9.94;26.65
77749;BME280;66938;52.084;5.228;2023-04-03T10:53:04;103367.0;;;10.16;29.07